sensor_id;sensor_type;location;lat;lon;timestamp;temperature;humidity
19031;DHT22;9648;51.130;13.978;2023-02-10T00:00:56;-3.40;99.90
19031;DHT22;9648;51.130;13.978;2023-02-10T00:03:23;-3.40;99.90
19031;DHT22;9648;51.130;13.978;2023-02-10T00:05:51;-3.40;99.90
19031;DHT22;9648;51.130;13.978;2023-02-10T00:08:21;-3.40;99.90
19031;DHT22;9648;51.130;13.978;2023-02-10T00:10:47;-3.30;99.90
19031;DHT22;9648;51.130;13.978;2023-02-10T00:13:14;-3.30;99.90
19031;DHT22;9648;51.130;13.978;2023-02-10T00:15:41;-3.30;99.90
19031;DHT22;9648;51.130;13.978;2023-02-10T00:18:10;-3.30;99.90
19031;DHT22;9648;51.130;13.978;2023-02-10T00:20:37;-3.40;99.90
19031;DHT22;9648;51.130;13.978;2023-02-10T00:23:05;-3.40;99.90
19031;DHT22;9648;51.130;13.978;2023-02-10T00:25:34;-3.40;99.90
19031;DHT22;9648;51.130;13.978;2023-02-10T00:28:00;-3.50;99.90
19031;DHT22;9648;51.130;13.978;2023-02-10T00:30:28;-3.50;99.90
19031;DHT22;9648;51.130;13.978;2023-02-10T00:32:54;-3.50;99.90
19031;DHT22;9648;51.130;13.978;2023-02-10T00:35:21;-3.50;99.90
19031;DHT22;9648;51.130;13.978;2023-02-10T00:37:48;-3.50;99.90
19031;DHT22;9648;51.130;13.978;2023-02-10T00:40:17;-3.50;99.90
19031;DHT22;9648;51.130;13.978;2023-02-10T00:42:43;-3.50;99.90
19031;DHT22;9648;51.130;13.978;2023-02-10T00:45:10;-3.60;99.90
19031;DHT22;9648;51.130;13.978;2023-02-10T00:47:38;-3.60;99.90
19031;DHT22;9648;51.130;13.978;2023-02-10T00:50:06;-3.60;99.90
19031;DHT22;9648;51.130;13.978;2023-02-10T00:52:32;-3.70;99.90
19031;DHT22;9648;51.130;13.978;2023-02-10T00:54:59;-3.70;99.90
19031;DHT22;9648;51.130;13.978;2023-02-10T00:57:33;-3.70;99.90
19031;DHT22;9648;51.130;13.978;2023-02-10T00:59:59;-3.80;99.90
19031;DHT22;9648;51.130;13.978;2023-02-10T01:02:26;-3.80;99.90
19031;DHT22;9648;51.130;13.978;2023-02-10T01:04:53;-3.90;99.90
19031;DHT22;9648;51.130;13.978;2023-02-10T01:07:20;-3.90;99.90
19031;DHT22;9648;51.130;13.978;2023-02-10T01:09:46;-3.90;99.90
19031;DHT22;9648;51.130;13.978;2023-02-10T01:12:13;-4.00;99.90
19031;DHT22;9648;51.130;13.978;2023-02-10T01:14:41;-4.00;99.90
19031;DHT22;9648;51.130;13.978;2023-02-10T01:17:08;-4.00;99.90
19031;DHT22;9648;51.130;13.978;2023-02-10T01:19:35;-4.00;99.90
19031;DHT22;9648;51.130;13.978;2023-02-10T01:22:02;-4.00;99.90
19031;DHT22;9648;51.130;13.978;2023-02-10T01:24:29;-4.00;99.90
19031;DHT22;9648;51.130;13.978;2023-02-10T01:26:56;-4.00;99.90
19031;DHT22;9648;51.130;13.978;2023-02-10T01:29:23;-4.00;99.90
19031;DHT22;9648;51.130;13.978;2023-02-10T01:31:51;-4.10;99.90
19031;DHT22;9648;51.130;13.978;2023-02-10T01:34:17;-4.10;99.90
19031;DHT22;9648;51.130;13.978;2023-02-10T01:36:44;-4.10;99.90
19031;DHT22;9648;51.130;13.978;2023-02-10T01:39:11;-4.10;99.90
19031;DHT22;9648;51.130;13.978;2023-02-10T01:41:38;-4.10;99.90
19031;DHT22;9648;51.130;13.978;2023-02-10T01:44:55;-4.10;99.90
19031;DHT22;9648;51.130;13.978;2023-02-10T01:46:55;-4.10;99.90
19031;DHT22;9648;51.130;13.978;2023-02-10T01:49:24;-4.10;99.90
19031;DHT22;9648;51.130;13.978;2023-02-10T01:51:54;-4.10;99.90
19031;DHT22;9648;51.130;13.978;2023-02-10T01:54:24;-4.20;99.90
19031;DHT22;9648;51.130;13.978;2023-02-10T01:56:51;-4.20;99.90
19031;DHT22;9648;51.130;13.978;2023-02-10T01:59:19;-4.30;99.90
19031;DHT22;9648;51.130;13.978;2023-02-10T02:01:47;-4.30;99.90
19031;DHT22;9648;51.130;13.978;2023-02-10T02:04:16;-4.30;99.90
19031;DHT22;9648;51.130;13.978;2023-02-10T02:06:44;-4.30;99.90
19031;DHT22;9648;51.130;13.978;2023-02-10T02:09:11;-4.40;99.90
19031;DHT22;9648;51.130;13.978;2023-02-10T02:11:44;-4.40;99.90
19031;DHT22;9648;51.130;13.978;2023-02-10T02:14:24;-4.40;99.90
19031;DHT22;9648;51.130;13.978;2023-02-10T02:17:01;-4.50;99.90
19031;DHT22;9648;51.130;13.978;2023-02-10T02:23:28;-4.60;99.90
19031;DHT22;9648;51.130;13.978;2023-02-10T02:26:22;-4.60;99.90
19031;DHT22;9648;51.130;13.978;2023-02-10T02:29:17;-4.70;99.90
19031;DHT22;9648;51.130;13.978;2023-02-10T02:31:59;-4.70;99.90
19031;DHT22;9648;51.130;13.978;2023-02-10T02:34:30;-4.80;99.90
19031;DHT22;9648;51.130;13.978;2023-02-10T02:37:02;-4.80;99.90
19031;DHT22;9648;51.130;13.978;2023-02-10T02:39:31;-4.80;99.90
19031;DHT22;9648;51.130;13.978;2023-02-10T02:42:14;-4.80;99.90
19031;DHT22;9648;51.130;13.978;2023-02-10T02:44:43;-4.90;99.90
19031;DHT22;9648;51.130;13.978;2023-02-10T02:47:19;-4.90;99.90
19031;DHT22;9648;51.130;13.978;2023-02-10T02:49:53;-4.90;99.90
19031;DHT22;9648;51.130;13.978;2023-02-10T02:52:38;-4.90;99.90
19031;DHT22;9648;51.130;13.978;2023-02-10T02:55:10;-5.00;99.90
19031;DHT22;9648;51.130;13.978;2023-02-10T02:57:45;-5.00;99.90
19031;DHT22;9648;51.130;13.978;2023-02-10T03:00:20;-5.00;99.90
19031;DHT22;9648;51.130;13.978;2023-02-10T03:02:51;-5.00;99.90
19031;DHT22;9648;51.130;13.978;2023-02-10T03:05:20;-4.90;99.90
19031;DHT22;9648;51.130;13.978;2023-02-10T03:07:47;-4.90;99.90
19031;DHT22;9648;51.130;13.978;2023-02-10T03:10:14;-4.80;99.90
19031;DHT22;9648;51.130;13.978;2023-02-10T03:12:41;-4.80;99.90
19031;DHT22;9648;51.130;13.978;2023-02-10T03:15:08;-4.80;99.90
19031;DHT22;9648;51.130;13.978;2023-02-10T03:17:36;-4.80;99.90
19031;DHT22;9648;51.130;13.978;2023-02-10T03:20:06;-4.70;99.90
19031;DHT22;9648;51.130;13.978;2023-02-10T03:22:33;-4.70;99.90
19031;DHT22;9648;51.130;13.978;2023-02-10T03:24:59;-4.70;99.90
19031;DHT22;9648;51.130;13.978;2023-02-10T03:27:26;-4.70;99.90
19031;DHT22;9648;51.130;13.978;2023-02-10T03:29:53;-4.70;99.90
19031;DHT22;9648;51.130;13.978;2023-02-10T03:32:20;-4.70;99.90
19031;DHT22;9648;51.130;13.978;2023-02-10T03:34:46;-4.60;99.90
19031;DHT22;9648;51.130;13.978;2023-02-10T03:37:15;-4.70;99.90
19031;DHT22;9648;51.130;13.978;2023-02-10T03:39:42;-4.60;99.90
19031;DHT22;9648;51.130;13.978;2023-02-10T03:42:09;-4.60;99.90
19031;DHT22;9648;51.130;13.978;2023-02-10T03:44:36;-4.40;99.90
19031;DHT22;9648;51.130;13.978;2023-02-10T03:47:03;-4.30;99.90
19031;DHT22;9648;51.130;13.978;2023-02-10T03:49:30;-4.20;99.90
19031;DHT22;9648;51.130;13.978;2023-02-10T03:51:57;-4.10;99.90
19031;DHT22;9648;51.130;13.978;2023-02-10T03:54:25;-3.90;99.90
19031;DHT22;9648;51.130;13.978;2023-02-10T03:56:52;-3.80;99.90
19031;DHT22;9648;51.130;13.978;2023-02-10T03:59:18;-3.70;99.90
19031;DHT22;9648;51.130;13.978;2023-02-10T04:01:45;-3.60;99.90
19031;DHT22;9648;51.130;13.978;2023-02-10T04:04:12;-3.50;99.90
19031;DHT22;9648;51.130;13.978;2023-02-10T04:06:39;-3.40;99.90
19031;DHT22;9648;51.130;13.978;2023-02-10T04:09:06;-3.30;99.90
19031;DHT22;9648;51.130;13.978;2023-02-10T04:11:34;-3.20;99.90
19031;DHT22;9648;51.130;13.978;2023-02-10T04:14:00;-3.10;99.90
19031;DHT22;9648;51.130;13.978;2023-02-10T04:16:27;-3.10;99.90
19031;DHT22;9648;51.130;13.978;2023-02-10T04:18:55;-3.00;99.90
19031;DHT22;9648;51.130;13.978;2023-02-10T04:21:22;-3.00;99.90
19031;DHT22;9648;51.130;13.978;2023-02-10T04:23:50;-2.90;99.90
19031;DHT22;9648;51.130;13.978;2023-02-10T04:26:16;-2.90;99.90
19031;DHT22;9648;51.130;13.978;2023-02-10T04:28:45;-2.90;99.90
19031;DHT22;9648;51.130;13.978;2023-02-10T04:31:11;-2.80;99.90
19031;DHT22;9648;51.130;13.978;2023-02-10T04:33:38;-2.70;99.90
19031;DHT22;9648;51.130;13.978;2023-02-10T04:36:08;-2.70;99.90
19031;DHT22;9648;51.130;13.978;2023-02-10T04:38:35;-2.70;99.90
19031;DHT22;9648;51.130;13.978;2023-02-10T04:41:02;-2.60;99.90
19031;DHT22;9648;51.130;13.978;2023-02-10T04:43:33;-2.60;99.90
19031;DHT22;9648;51.130;13.978;2023-02-10T04:46:01;-2.50;99.90
19031;DHT22;9648;51.130;13.978;2023-02-10T04:48:29;-2.40;99.90
19031;DHT22;9648;51.130;13.978;2023-02-10T04:50:56;-2.30;99.90
19031;DHT22;9648;51.130;13.978;2023-02-10T04:53:23;-2.30;99.90
19031;DHT22;9648;51.130;13.978;2023-02-10T04:55:50;-2.20;99.90
19031;DHT22;9648;51.130;13.978;2023-02-10T04:58:17;-2.10;99.90
19031;DHT22;9648;51.130;13.978;2023-02-10T05:00:44;-2.00;99.90
19031;DHT22;9648;51.130;13.978;2023-02-10T05:03:12;-2.00;99.90
19031;DHT22;9648;51.130;13.978;2023-02-10T05:05:42;-2.00;99.90
19031;DHT22;9648;51.130;13.978;2023-02-10T05:08:09;-1.90;99.90
19031;DHT22;9648;51.130;13.978;2023-02-10T05:10:36;-1.90;99.90
19031;DHT22;9648;51.130;13.978;2023-02-10T05:13:03;-1.90;99.90
19031;DHT22;9648;51.130;13.978;2023-02-10T05:15:29;-1.80;99.90
19031;DHT22;9648;51.130;13.978;2023-02-10T05:17:56;-1.80;99.90
19031;DHT22;9648;51.130;13.978;2023-02-10T05:20:24;-1.80;99.90
19031;DHT22;9648;51.130;13.978;2023-02-10T05:22:51;-1.80;99.90
19031;DHT22;9648;51.130;13.978;2023-02-10T05:25:18;-1.80;99.90
19031;DHT22;9648;51.130;13.978;2023-02-10T05:27:45;-1.70;99.90
19031;DHT22;9648;51.130;13.978;2023-02-10T05:30:12;-1.70;99.90
19031;DHT22;9648;51.130;13.978;2023-02-10T05:32:39;-1.70;99.90
19031;DHT22;9648;51.130;13.978;2023-02-10T05:35:07;-1.70;99.90
19031;DHT22;9648;51.130;13.978;2023-02-10T05:37:35;-1.60;99.90
19031;DHT22;9648;51.130;13.978;2023-02-10T05:40:03;-1.60;99.90
19031;DHT22;9648;51.130;13.978;2023-02-10T05:42:32;-1.60;99.90
19031;DHT22;9648;51.130;13.978;2023-02-10T05:44:59;-1.60;99.90
19031;DHT22;9648;51.130;13.978;2023-02-10T05:47:26;-1.60;99.90
19031;DHT22;9648;51.130;13.978;2023-02-10T05:49:52;-1.60;99.90
19031;DHT22;9648;51.130;13.978;2023-02-10T05:52:19;-1.60;99.90
19031;DHT22;9648;51.130;13.978;2023-02-10T05:54:47;-1.60;99.90
19031;DHT22;9648;51.130;13.978;2023-02-10T05:57:14;-1.50;99.90
19031;DHT22;9648;51.130;13.978;2023-02-10T05:59:41;-1.50;99.90
19031;DHT22;9648;51.130;13.978;2023-02-10T06:02:08;-1.50;99.90
19031;DHT22;9648;51.130;13.978;2023-02-10T06:04:34;-1.40;99.90
19031;DHT22;9648;51.130;13.978;2023-02-10T06:07:01;-1.40;99.90
19031;DHT22;9648;51.130;13.978;2023-02-10T06:09:28;-1.40;99.90
19031;DHT22;9648;51.130;13.978;2023-02-10T06:11:58;-1.40;99.90
19031;DHT22;9648;51.130;13.978;2023-02-10T06:14:26;-1.40;99.90
19031;DHT22;9648;51.130;13.978;2023-02-10T06:16:53;-1.40;99.90
19031;DHT22;9648;51.130;13.978;2023-02-10T06:19:19;-1.30;99.90
19031;DHT22;9648;51.130;13.978;2023-02-10T06:21:46;-1.30;99.90
19031;DHT22;9648;51.130;13.978;2023-02-10T06:24:13;-1.30;99.90
19031;DHT22;9648;51.130;13.978;2023-02-10T06:26:40;-1.30;99.90
19031;DHT22;9648;51.130;13.978;2023-02-10T06:29:08;-1.30;99.90
19031;DHT22;9648;51.130;13.978;2023-02-10T06:31:35;-1.30;99.90
19031;DHT22;9648;51.130;13.978;2023-02-10T06:34:02;-1.30;99.90
19031;DHT22;9648;51.130;13.978;2023-02-10T06:36:28;-1.20;99.90
19031;DHT22;9648;51.130;13.978;2023-02-10T06:38:55;-1.20;99.90
19031;DHT22;9648;51.130;13.978;2023-02-10T06:41:22;-1.20;99.90
19031;DHT22;9648;51.130;13.978;2023-02-10T06:43:49;-1.10;99.90
19031;DHT22;9648;51.130;13.978;2023-02-10T06:46:17;-1.10;99.90
19031;DHT22;9648;51.130;13.978;2023-02-10T06:48:44;-1.10;99.90
19031;DHT22;9648;51.130;13.978;2023-02-10T06:51:11;-1.00;99.90
19031;DHT22;9648;51.130;13.978;2023-02-10T06:53:38;-0.90;99.90
19031;DHT22;9648;51.130;13.978;2023-02-10T06:56:05;-0.90;99.90
19031;DHT22;9648;51.130;13.978;2023-02-10T06:58:32;-0.90;99.90
19031;DHT22;9648;51.130;13.978;2023-02-10T07:00:58;-0.90;99.90
19031;DHT22;9648;51.130;13.978;2023-02-10T07:03:28;-0.80;99.90
19031;DHT22;9648;51.130;13.978;2023-02-10T07:05:54;-0.80;99.90
19031;DHT22;9648;51.130;13.978;2023-02-10T07:08:21;-0.70;99.90
19031;DHT22;9648;51.130;13.978;2023-02-10T07:10:48;-0.70;99.90
19031;DHT22;9648;51.130;13.978;2023-02-10T07:13:15;-0.70;99.90
19031;DHT22;9648;51.130;13.978;2023-02-10T07:15:41;-0.60;99.90
19031;DHT22;9648;51.130;13.978;2023-02-10T07:18:08;-0.60;99.90
19031;DHT22;9648;51.130;13.978;2023-02-10T07:20:39;-0.50;99.90
19031;DHT22;9648;51.130;13.978;2023-02-10T07:23:06;-0.50;99.90
19031;DHT22;9648;51.130;13.978;2023-02-10T07:25:33;-0.50;99.90
19031;DHT22;9648;51.130;13.978;2023-02-10T07:28:00;-0.40;99.90
19031;DHT22;9648;51.130;13.978;2023-02-10T07:30:26;-0.30;99.90
19031;DHT22;9648;51.130;13.978;2023-02-10T07:32:54;-0.20;99.90
19031;DHT22;9648;51.130;13.978;2023-02-10T07:35:21;-0.20;99.90
19031;DHT22;9648;51.130;13.978;2023-02-10T07:37:49;-0.10;99.90
19031;DHT22;9648;51.130;13.978;2023-02-10T07:40:16;-0.10;99.90
19031;DHT22;9648;51.130;13.978;2023-02-10T07:42:42;-0.10;99.90
19031;DHT22;9648;51.130;13.978;2023-02-10T07:45:10;0.00;99.90
19031;DHT22;9648;51.130;13.978;2023-02-10T07:47:37;0.10;99.90
19031;DHT22;9648;51.130;13.978;2023-02-10T07:50:05;0.10;99.90
19031;DHT22;9648;51.130;13.978;2023-02-10T07:52:32;0.20;99.90
19031;DHT22;9648;51.130;13.978;2023-02-10T07:55:00;0.20;99.90
19031;DHT22;9648;51.130;13.978;2023-02-10T07:57:28;0.20;99.90
19031;DHT22;9648;51.130;13.978;2023-02-10T07:59:55;0.20;99.90
19031;DHT22;9648;51.130;13.978;2023-02-10T08:02:21;0.20;99.90
19031;DHT22;9648;51.130;13.978;2023-02-10T08:04:48;0.20;99.90
19031;DHT22;9648;51.130;13.978;2023-02-10T08:07:19;0.20;99.90
19031;DHT22;9648;51.130;13.978;2023-02-10T08:09:46;0.30;99.90
19031;DHT22;9648;51.130;13.978;2023-02-10T08:12:14;0.30;99.90
19031;DHT22;9648;51.130;13.978;2023-02-10T08:14:41;0.40;99.90
19031;DHT22;9648;51.130;13.978;2023-02-10T08:17:08;0.50;99.90
19031;DHT22;9648;51.130;13.978;2023-02-10T08:19:34;0.60;99.90
19031;DHT22;9648;51.130;13.978;2023-02-10T08:22:05;0.60;99.90
19031;DHT22;9648;51.130;13.978;2023-02-10T08:24:32;0.60;99.90
19031;DHT22;9648;51.130;13.978;2023-02-10T08:26:59;0.60;99.90
19031;DHT22;9648;51.130;13.978;2023-02-10T08:29:27;0.70;99.90
19031;DHT22;9648;51.130;13.978;2023-02-10T08:31:53;0.70;99.90
19031;DHT22;9648;51.130;13.978;2023-02-10T08:34:21;0.80;99.90
19031;DHT22;9648;51.130;13.978;2023-02-10T08:36:48;0.90;99.90
19031;DHT22;9648;51.130;13.978;2023-02-10T08:39:15;0.90;99.90
19031;DHT22;9648;51.130;13.978;2023-02-10T08:41:41;0.90;99.90
19031;DHT22;9648;51.130;13.978;2023-02-10T08:44:11;0.90;99.90
19031;DHT22;9648;51.130;13.978;2023-02-10T08:46:40;1.00;99.90
19031;DHT22;9648;51.130;13.978;2023-02-10T08:49:07;1.00;99.90
19031;DHT22;9648;51.130;13.978;2023-02-10T08:51:33;1.00;99.90
19031;DHT22;9648;51.130;13.978;2023-02-10T08:54:05;1.10;99.90
19031;DHT22;9648;51.130;13.978;2023-02-10T08:56:32;1.10;99.90
19031;DHT22;9648;51.130;13.978;2023-02-10T08:58:58;1.10;99.90
19031;DHT22;9648;51.130;13.978;2023-02-10T09:01:25;1.10;99.90
19031;DHT22;9648;51.130;13.978;2023-02-10T09:03:54;1.10;99.90
19031;DHT22;9648;51.130;13.978;2023-02-10T09:06:22;1.10;99.90
19031;DHT22;9648;51.130;13.978;2023-02-10T09:08:50;1.10;99.90
19031;DHT22;9648;51.130;13.978;2023-02-10T09:11:19;1.10;99.90
19031;DHT22;9648;51.130;13.978;2023-02-10T09:13:47;1.20;99.90
19031;DHT22;9648;51.130;13.978;2023-02-10T09:16:14;1.10;99.90
19031;DHT22;9648;51.130;13.978;2023-02-10T09:18:41;1.10;99.90
19031;DHT22;9648;51.130;13.978;2023-02-10T09:21:09;1.10;99.90
19031;DHT22;9648;51.130;13.978;2023-02-10T09:23:36;1.10;99.90
19031;DHT22;9648;51.130;13.978;2023-02-10T09:26:03;1.20;99.90
19031;DHT22;9648;51.130;13.978;2023-02-10T09:28:30;1.30;99.90
19031;DHT22;9648;51.130;13.978;2023-02-10T09:30:57;1.30;99.90
19031;DHT22;9648;51.130;13.978;2023-02-10T09:33:23;1.30;99.90
19031;DHT22;9648;51.130;13.978;2023-02-10T09:35:53;1.30;99.90
19031;DHT22;9648;51.130;13.978;2023-02-10T09:38:22;1.30;99.90
19031;DHT22;9648;51.130;13.978;2023-02-10T09:40:54;1.20;99.90
19031;DHT22;9648;51.130;13.978;2023-02-10T09:43:54;1.20;99.90
19031;DHT22;9648;51.130;13.978;2023-02-10T09:46:33;1.30;99.90
19031;DHT22;9648;51.130;13.978;2023-02-10T09:49:13;1.20;99.90
19031;DHT22;9648;51.130;13.978;2023-02-10T09:51:50;1.20;99.90
19031;DHT22;9648;51.130;13.978;2023-02-10T09:54:20;1.20;99.90
19031;DHT22;9648;51.130;13.978;2023-02-10T09:56:46;1.20;99.90
19031;DHT22;9648;51.130;13.978;2023-02-10T09:59:17;1.10;99.90
19031;DHT22;9648;51.130;13.978;2023-02-10T10:01:50;1.10;99.90
19031;DHT22;9648;51.130;13.978;2023-02-10T10:04:20;1.20;99.90
19031;DHT22;9648;51.130;13.978;2023-02-10T10:06:50;1.20;99.90
19031;DHT22;9648;51.130;13.978;2023-02-10T10:09:26;1.10;99.90
19031;DHT22;9648;51.130;13.978;2023-02-10T10:11:57;1.20;99.90
19031;DHT22;9648;51.130;13.978;2023-02-10T10:14:26;1.20;99.90
19031;DHT22;9648;51.130;13.978;2023-02-10T10:17:10;1.20;99.90
19031;DHT22;9648;51.130;13.978;2023-02-10T10:19:54;1.20;99.90
19031;DHT22;9648;51.130;13.978;2023-02-10T10:22:41;1.20;99.90
19031;DHT22;9648;51.130;13.978;2023-02-10T10:25:41;1.10;99.90
19031;DHT22;9648;51.130;13.978;2023-02-10T10:28:18;1.10;99.90
19031;DHT22;9648;51.130;13.978;2023-02-10T10:30:54;1.20;99.90
19031;DHT22;9648;51.130;13.978;2023-02-10T10:33:24;1.20;99.90
19031;DHT22;9648;51.130;13.978;2023-02-10T10:35:52;1.20;99.90
19031;DHT22;9648;51.130;13.978;2023-02-10T10:38:23;1.30;99.90
19031;DHT22;9648;51.130;13.978;2023-02-10T10:40:54;1.30;99.90
19031;DHT22;9648;51.130;13.978;2023-02-10T10:43:24;1.20;99.90
19031;DHT22;9648;51.130;13.978;2023-02-10T10:45:56;1.30;99.90
19031;DHT22;9648;51.130;13.978;2023-02-10T10:48:26;1.30;99.90
19031;DHT22;9648;51.130;13.978;2023-02-10T10:50:58;1.30;99.90
19031;DHT22;9648;51.130;13.978;2023-02-10T10:53:36;1.50;99.90
19031;DHT22;9648;51.130;13.978;2023-02-10T10:56:08;1.60;99.90
19031;DHT22;9648;51.130;13.978;2023-02-10T10:58:40;1.70;99.90
19031;DHT22;9648;51.130;13.978;2023-02-10T11:01:12;1.70;99.90
19031;DHT22;9648;51.130;13.978;2023-02-10T11:03:39;1.60;99.90
19031;DHT22;9648;51.130;13.978;2023-02-10T11:06:08;1.60;99.90
19031;DHT22;9648;51.130;13.978;2023-02-10T11:08:38;1.60;99.90
19031;DHT22;9648;51.130;13.978;2023-02-10T11:11:11;1.60;99.90
19031;DHT22;9648;51.130;13.978;2023-02-10T11:13:47;1.60;99.90
19031;DHT22;9648;51.130;13.978;2023-02-10T11:16:16;1.60;99.90
19031;DHT22;9648;51.130;13.978;2023-02-10T11:18:51;1.60;99.90
19031;DHT22;9648;51.130;13.978;2023-02-10T11:21:18;1.70;99.90
19031;DHT22;9648;51.130;13.978;2023-02-10T11:23:51;1.70;99.90
19031;DHT22;9648;51.130;13.978;2023-02-10T11:26:21;1.70;99.90
19031;DHT22;9648;51.130;13.978;2023-02-10T11:28:49;1.70;99.90
19031;DHT22;9648;51.130;13.978;2023-02-10T11:31:25;1.70;99.90
19031;DHT22;9648;51.130;13.978;2023-02-10T11:33:56;1.70;99.90
19031;DHT22;9648;51.130;13.978;2023-02-10T11:36:30;1.70;99.90
19031;DHT22;9648;51.130;13.978;2023-02-10T11:39:00;1.60;99.90
19031;DHT22;9648;51.130;13.978;2023-02-10T11:41:30;1.60;99.90
19031;DHT22;9648;51.130;13.978;2023-02-10T11:43:57;1.70;99.90
19031;DHT22;9648;51.130;13.978;2023-02-10T11:46:26;1.80;99.90
19031;DHT22;9648;51.130;13.978;2023-02-10T11:48:55;1.80;99.90
19031;DHT22;9648;51.130;13.978;2023-02-10T11:51:22;1.80;99.90
19031;DHT22;9648;51.130;13.978;2023-02-10T11:53:50;1.80;99.90
19031;DHT22;9648;51.130;13.978;2023-02-10T11:56:20;1.80;99.90
19031;DHT22;9648;51.130;13.978;2023-02-10T11:59:17;1.80;99.90
19031;DHT22;9648;51.130;13.978;2023-02-10T12:01:49;1.90;99.90
19031;DHT22;9648;51.130;13.978;2023-02-10T12:04:29;2.00;99.90
19031;DHT22;9648;51.130;13.978;2023-02-10T12:07:06;2.10;99.90
19031;DHT22;9648;51.130;13.978;2023-02-10T12:09:42;2.20;99.90
19031;DHT22;9648;51.130;13.978;2023-02-10T12:12:18;2.30;99.90
19031;DHT22;9648;51.130;13.978;2023-02-10T12:14:56;2.50;99.90
19031;DHT22;9648;51.130;13.978;2023-02-10T12:17:27;2.70;99.90
19031;DHT22;9648;51.130;13.978;2023-02-10T12:20:13;2.80;99.90
19031;DHT22;9648;51.130;13.978;2023-02-10T12:23:22;2.90;99.90
19031;DHT22;9648;51.130;13.978;2023-02-10T12:25:56;2.80;99.90
19031;DHT22;9648;51.130;13.978;2023-02-10T12:28:35;2.70;99.90
19031;DHT22;9648;51.130;13.978;2023-02-10T12:31:18;2.80;99.90
19031;DHT22;9648;51.130;13.978;2023-02-10T12:34:06;2.80;99.90
19031;DHT22;9648;51.130;13.978;2023-02-10T12:36:40;2.90;99.90
19031;DHT22;9648;51.130;13.978;2023-02-10T12:39:13;2.90;99.90
19031;DHT22;9648;51.130;13.978;2023-02-10T12:41:47;2.80;99.90
19031;DHT22;9648;51.130;13.978;2023-02-10T12:44:37;2.80;99.90
19031;DHT22;9648;51.130;13.978;2023-02-10T12:47:20;2.80;99.90
19031;DHT22;9648;51.130;13.978;2023-02-10T12:50:00;2.80;99.90
19031;DHT22;9648;51.130;13.978;2023-02-10T12:52:31;2.80;99.90
19031;DHT22;9648;51.130;13.978;2023-02-10T12:55:04;2.70;99.90
19031;DHT22;9648;51.130;13.978;2023-02-10T12:57:39;2.70;99.90
19031;DHT22;9648;51.130;13.978;2023-02-10T13:00:13;2.60;99.90
19031;DHT22;9648;51.130;13.978;2023-02-10T13:02:46;2.80;99.90
19031;DHT22;9648;51.130;13.978;2023-02-10T13:05:18;3.00;99.90
19031;DHT22;9648;51.130;13.978;2023-02-10T13:07:50;3.10;99.90
19031;DHT22;9648;51.130;13.978;2023-02-10T13:10:22;3.20;99.90
19031;DHT22;9648;51.130;13.978;2023-02-10T13:12:54;3.20;99.90
19031;DHT22;9648;51.130;13.978;2023-02-10T13:15:25;3.40;99.90
19031;DHT22;9648;51.130;13.978;2023-02-10T13:17:56;3.40;99.90
19031;DHT22;9648;51.130;13.978;2023-02-10T13:20:35;3.50;99.90
19031;DHT22;9648;51.130;13.978;2023-02-10T13:23:15;3.50;99.90
19031;DHT22;9648;51.130;13.978;2023-02-10T13:25:58;3.50;99.90
19031;DHT22;9648;51.130;13.978;2023-02-10T13:28:33;3.60;99.90
19031;DHT22;9648;51.130;13.978;2023-02-10T13:31:28;3.70;99.90
19031;DHT22;9648;51.130;13.978;2023-02-10T13:34:03;3.70;99.90
19031;DHT22;9648;51.130;13.978;2023-02-10T13:36:33;3.70;99.90
19031;DHT22;9648;51.130;13.978;2023-02-10T13:39:04;3.70;99.90
19031;DHT22;9648;51.130;13.978;2023-02-10T13:41:34;3.80;99.90
19031;DHT22;9648;51.130;13.978;2023-02-10T13:44:17;3.80;99.90
19031;DHT22;9648;51.130;13.978;2023-02-10T13:46:54;3.80;99.90
19031;DHT22;9648;51.130;13.978;2023-02-10T13:49:24;3.80;99.90
19031;DHT22;9648;51.130;13.978;2023-02-10T13:52:07;3.90;99.90
19031;DHT22;9648;51.130;13.978;2023-02-10T13:54:38;3.80;99.90
19031;DHT22;9648;51.130;13.978;2023-02-10T13:59:47;3.60;99.90
19031;DHT22;9648;51.130;13.978;2023-02-10T14:02:20;3.60;99.90
19031;DHT22;9648;51.130;13.978;2023-02-10T14:04:50;3.60;99.90
19031;DHT22;9648;51.130;13.978;2023-02-10T14:07:33;3.60;99.90
19031;DHT22;9648;51.130;13.978;2023-02-10T14:10:04;3.60;99.90
19031;DHT22;9648;51.130;13.978;2023-02-10T14:12:32;3.60;99.90
19031;DHT22;9648;51.130;13.978;2023-02-10T14:15:18;3.60;99.90
19031;DHT22;9648;51.130;13.978;2023-02-10T14:17:53;3.60;99.90
19031;DHT22;9648;51.130;13.978;2023-02-10T14:20:28;3.60;99.90
19031;DHT22;9648;51.130;13.978;2023-02-10T14:22:56;3.60;99.90
19031;DHT22;9648;51.130;13.978;2023-02-10T14:25:31;3.50;99.90
19031;DHT22;9648;51.130;13.978;2023-02-10T14:28:00;3.50;99.90
19031;DHT22;9648;51.130;13.978;2023-02-10T14:30:36;3.50;99.90
19031;DHT22;9648;51.130;13.978;2023-02-10T14:33:05;3.40;99.90
19031;DHT22;9648;51.130;13.978;2023-02-10T14:35:33;3.40;99.90
19031;DHT22;9648;51.130;13.978;2023-02-10T14:38:03;3.40;99.90
19031;DHT22;9648;51.130;13.978;2023-02-10T14:40:31;3.40;99.90
19031;DHT22;9648;51.130;13.978;2023-02-10T14:43:00;3.40;99.90
19031;DHT22;9648;51.130;13.978;2023-02-10T14:45:28;3.30;99.90
19031;DHT22;9648;51.130;13.978;2023-02-10T14:47:57;3.40;99.90
19031;DHT22;9648;51.130;13.978;2023-02-10T14:50:26;3.40;99.90
19031;DHT22;9648;51.130;13.978;2023-02-10T14:52:55;3.40;99.90
19031;DHT22;9648;51.130;13.978;2023-02-10T14:55:28;3.40;99.90
19031;DHT22;9648;51.130;13.978;2023-02-10T14:57:57;3.30;99.90
19031;DHT22;9648;51.130;13.978;2023-02-10T15:00:24;3.30;99.90
19031;DHT22;9648;51.130;13.978;2023-02-10T15:02:55;3.20;99.90
19031;DHT22;9648;51.130;13.978;2023-02-10T15:05:23;3.20;99.90
19031;DHT22;9648;51.130;13.978;2023-02-10T15:07:53;3.20;99.90
19031;DHT22;9648;51.130;13.978;2023-02-10T15:10:26;3.20;99.90
19031;DHT22;9648;51.130;13.978;2023-02-10T15:12:55;3.20;99.90
19031;DHT22;9648;51.130;13.978;2023-02-10T15:15:26;3.20;99.90
19031;DHT22;9648;51.130;13.978;2023-02-10T15:17:57;3.20;99.90
19031;DHT22;9648;51.130;13.978;2023-02-10T15:20:27;3.10;99.90
19031;DHT22;9648;51.130;13.978;2023-02-10T15:23:09;3.10;99.90
19031;DHT22;9648;51.130;13.978;2023-02-10T15:25:38;3.10;99.90
19031;DHT22;9648;51.130;13.978;2023-02-10T15:28:20;3.10;99.90
19031;DHT22;9648;51.130;13.978;2023-02-10T15:30:58;3.00;99.90
19031;DHT22;9648;51.130;13.978;2023-02-10T15:33:28;3.00;99.90
19031;DHT22;9648;51.130;13.978;2023-02-10T15:36:02;2.90;99.90
19031;DHT22;9648;51.130;13.978;2023-02-10T15:38:31;2.90;99.90
19031;DHT22;9648;51.130;13.978;2023-02-10T15:40:59;2.80;99.90
19031;DHT22;9648;51.130;13.978;2023-02-10T15:43:28;2.80;99.90
19031;DHT22;9648;51.130;13.978;2023-02-10T15:46:05;2.80;99.90
19031;DHT22;9648;51.130;13.978;2023-02-10T15:48:32;2.80;99.90
19031;DHT22;9648;51.130;13.978;2023-02-10T15:50:59;2.80;99.90
19031;DHT22;9648;51.130;13.978;2023-02-10T15:53:26;2.80;99.90
19031;DHT22;9648;51.130;13.978;2023-02-10T15:55:53;2.80;99.90
19031;DHT22;9648;51.130;13.978;2023-02-10T15:58:21;2.80;99.90
19031;DHT22;9648;51.130;13.978;2023-02-10T16:00:48;2.80;99.90
19031;DHT22;9648;51.130;13.978;2023-02-10T16:03:14;2.80;99.90